Time;durP1;ratioP1;P1;durP2;ratioP2;P2;SDS_P1;SDS_P2;PMS_P1;PMS_P2;Temp;Humidity;BMP_temperature;BMP_pressure;BME280_temperature;BME280_humidity;BME280_pressure;Samples;Min_cycle;Max_cycle;Signal;HPM_P1;HPM_P2
2023/12/15 00:01:28;;;;;;;25.17;8.18;;;-5.60;99.70;;;;;;4960146;28;20049;-79
2023/12/15 00:03:54;;;;;;;26.33;6.30;;;-5.60;99.70;;;;;;4957774;28;20043;-77
2023/12/15 00:06:20;;;;;;;16.13;6.03;;;-5.50;99.70;;;;;;4960355;28;20029;-78
2023/12/15 00:08:46;;;;;;;36.33;7.93;;;-5.50;99.70;;;;;;4959591;28;20199;-79
2023/12/15 00:11:12;;;;;;;19.23;6.22;;;-5.50;99.80;;;;;;4949519;28;20118;-78
2023/12/15 00:13:37;;;;;;;23.73;5.88;;;-5.50;99.70;;;;;;4956065;28;20110;-78
2023/12/15 00:16:03;;;;;;;18.20;6.32;;;-5.50;99.70;;;;;;4946081;28;20114;-79
2023/12/15 00:18:29;;;;;;;20.60;6.07;;;-5.50;99.70;;;;;;4934106;28;20027;-78
2023/12/15 00:20:55;;;;;;;22.00;7.13;;;-5.50;99.50;;;;;;4941175;29;20126;-77
2023/12/15 00:23:21;;;;;;;24.15;6.78;;;-5.50;99.40;;;;;;4952324;29;20405;-79
2023/12/15 00:25:56;;;;;;;23.60;6.82;;;-5.50;99.40;;;;;;4957321;28;20023;-80
2023/12/15 00:28:22;;;;;;;17.08;6.32;;;-5.50;99.50;;;;;;4955853;28;20046;-77
2023/12/15 00:30:48;;;;;;;23.27;5.22;;;-5.50;99.50;;;;;;4955864;28;20027;-78
2023/12/15 00:33:14;;;;;;;18.27;6.50;;;-5.50;99.50;;;;;;4962457;28;20110;-78
2023/12/15 00:35:40;;;;;;;25.42;6.47;;;-5.50;99.50;;;;;;4958949;28;20051;-77
2023/12/15 00:38:06;;;;;;;19.52;6.97;;;-5.50;99.50;;;;;;4976057;28;20077;-77
2023/12/15 00:40:31;;;;;;;22.00;6.18;;;-5.50;99.50;;;;;;4973248;28;20106;-77
2023/12/15 00:42:58;;;;;;;23.13;8.57;;;-5.50;99.40;;;;;;4958627;28;20146;-77
2023/12/15 00:45:24;;;;;;;33.45;12.40;;;-5.40;99.40;;;;;;4976204;28;20019;-77
2023/12/15 00:47:50;;;;;;;25.67;7.40;;;-5.40;99.40;;;;;;4945643;29;20035;-78
2023/12/15 00:50:16;;;;;;;27.88;6.18;;;-5.40;99.30;;;;;;4962620;28;20023;-77
2023/12/15 00:52:42;;;;;;;20.77;6.93;;;-5.40;99.30;;;;;;4958191;28;20031;-79
2023/12/15 00:55:08;;;;;;;26.38;6.85;;;-5.40;99.30;;;;;;4973382;28;20054;-77
2023/12/15 00:57:34;;;;;;;24.00;5.30;;;-5.40;99.20;;;;;;4975766;28;20113;-76
2023/12/15 00:59:59;;;;;;;31.05;7.20;;;-5.40;99.10;;;;;;4958102;28;20503;-78
2023/12/15 01:02:25;;;;;;;28.48;9.20;;;-5.40;99.10;;;;;;4975654;28;20041;-78
2023/12/15 01:04:51;;;;;;;20.30;7.50;;;-5.40;99.00;;;;;;4960233;28;20027;-77
2023/12/15 01:07:17;;;;;;;29.80;6.50;;;-5.40;98.90;;;;;;4975684;28;20031;-77
2023/12/15 01:09:43;;;;;;;24.00;5.95;;;-5.40;98.90;;;;;;4978262;28;20034;-78
2023/12/15 01:12:08;;;;;;;25.75;6.70;;;-5.40;98.80;;;;;;4975304;28;20420;-78
2023/12/15 01:14:34;;;;;;;28.85;7.28;;;-5.40;98.80;;;;;;4966963;28;20034;-76
2023/12/15 01:17:00;;;;;;;19.15;5.97;;;-5.40;98.80;;;;;;4975326;28;20133;-77
2023/12/15 01:19:26;;;;;;;21.20;6.57;;;-5.40;98.70;;;;;;4953787;29;20086;-77
2023/12/15 01:21:52;;;;;;;17.92;5.90;;;-5.40;98.70;;;;;;4952211;28;20037;-78
2023/12/15 01:24:18;;;;;;;23.85;6.63;;;-5.40;98.80;;;;;;4944827;28;20031;-77
2023/12/15 01:26:44;;;;;;;27.67;6.70;;;-5.40;98.80;;;;;;4975201;28;20034;-79
2023/12/15 01:29:09;;;;;;;30.40;6.22;;;-5.40;98.60;;;;;;4974627;28;20411;-78
2023/12/15 01:31:35;;;;;;;33.22;10.10;;;-5.40;98.60;;;;;;4962061;28;20050;-79
2023/12/15 01:34:01;;;;;;;21.20;6.65;;;-5.40;98.60;;;;;;4977224;28;20074;-78
2023/12/15 01:36:28;;;;;;;18.75;8.88;;;-5.40;98.60;;;;;;4975899;28;20054;-78
2023/12/15 01:38:54;;;;;;;26.45;7.15;;;-5.40;98.60;;;;;;4958336;29;20568;-77
2023/12/15 01:41:20;;;;;;;22.37;6.90;;;-5.40;98.60;;;;;;4939825;28;20039;-78
2023/12/15 01:43:46;;;;;;;29.60;7.00;;;-5.40;98.60;;;;;;4960014;28;20024;-78
2023/12/15 01:46:12;;;;;;;24.70;7.90;;;-5.40;98.70;;;;;;4960635;28;20058;-78
2023/12/15 01:48:38;;;;;;;23.98;9.57;;;-5.40;98.70;;;;;;4967731;28;20056;-78
2023/12/15 01:51:04;;;;;;;28.80;9.27;;;-5.40;98.80;;;;;;4974793;28;20488;-78
2023/12/15 01:53:30;;;;;;;27.27;10.38;;;-5.40;98.90;;;;;;4973019;28;20093;-78
2023/12/15 01:55:56;;;;;;;20.95;7.53;;;-5.40;98.60;;;;;;4974912;28;20019;-78
2023/12/15 01:58:22;;;;;;;27.67;7.88;;;-5.40;98.60;;;;;;4958997;28;20080;-78
2023/12/15 02:00:48;;;;;;;20.10;6.35;;;-5.40;98.50;;;;;;4974497;28;20113;-78
2023/12/15 02:03:14;;;;;;;21.35;5.90;;;-5.40;98.40;;;;;;4956929;28;20134;-78
2023/12/15 02:05:40;;;;;;;26.40;8.57;;;-5.40;98.30;;;;;;4974715;28;20019;-78
2023/12/15 02:08:05;;;;;;;20.77;6.60;;;-5.40;98.30;;;;;;4961798;28;20034;-79
2023/12/15 02:10:36;;;;;;;20.08;8.45;;;-5.40;98.40;;;;;;4949724;28;20111;-78
2023/12/15 02:13:01;;;;;;;16.75;6.50;;;-5.40;98.40;;;;;;4974449;28;20460;-78
2023/12/15 02:15:27;;;;;;;26.48;7.97;;;-5.40;98.40;;;;;;4960487;28;20101;-77
2023/12/15 02:17:53;;;;;;;29.38;8.15;;;-5.40;98.30;;;;;;4974319;28;20039;-78
2023/12/15 02:20:19;;;;;;;24.67;7.57;;;-5.40;98.40;;;;;;4974353;28;20023;-79
2023/12/15 02:22:45;;;;;;;28.30;6.78;;;-5.40;98.30;;;;;;4956876;28;20050;-78
2023/12/15 02:25:10;;;;;;;22.50;7.00;;;-5.40;98.10;;;;;;4975080;28;20059;-77
2023/12/15 02:27:39;;;;;;;21.35;6.32;;;-5.40;98.10;;;;;;4962007;28;20453;-78
2023/12/15 02:30:06;;;;;;;18.65;7.15;;;-5.40;98.00;;;;;;4966065;28;20035;-77
2023/12/15 02:32:32;;;;;;;17.17;8.33;;;-5.40;98.10;;;;;;4956789;28;20030;-78
2023/12/15 02:34:58;;;;;;;22.80;8.32;;;-5.40;98.10;;;;;;4973886;28;20260;-78
2023/12/15 02:37:23;;;;;;;24.38;7.28;;;-5.40;98.00;;;;;;4973613;28;20098;-79
2023/12/15 02:39:49;;;;;;;21.60;6.90;;;-5.40;98.00;;;;;;4973460;28;20023;-78
2023/12/15 02:42:15;;;;;;;28.17;7.07;;;-5.40;97.90;;;;;;4973372;28;20049;-77
2023/12/15 02:44:43;;;;;;;29.38;9.32;;;-5.40;97.80;;;;;;4960131;28;20030;-78
2023/12/15 02:47:09;;;;;;;24.75;9.20;;;-5.40;97.80;;;;;;4966815;28;20022;-78
2023/12/15 02:49:41;;;;;;;26.55;10.27;;;-5.40;97.50;;;;;;4961889;28;20589;-78
2023/12/15 02:52:09;;;;;;;20.42;8.27;;;-5.40;97.50;;;;;;4968160;28;20049;-79
2023/12/15 02:54:35;;;;;;;28.27;7.45;;;-5.50;97.50;;;;;;4976727;28;20022;-79
2023/12/15 02:57:00;;;;;;;18.20;7.03;;;-5.50;97.50;;;;;;4975167;28;20101;-78
2023/12/15 02:59:26;;;;;;;27.35;9.35;;;-5.50;97.50;;;;;;4964747;28;20034;-78
2023/12/15 03:01:52;;;;;;;25.00;8.70;;;-5.50;97.50;;;;;;4973214;28;20030;-79
2023/12/15 03:04:18;;;;;;;30.38;8.48;;;-5.50;97.30;;;;;;4955810;28;20082;-79
2023/12/15 03:06:44;;;;;;;22.73;7.15;;;-5.50;97.30;;;;;;4973127;28;20548;-79
2023/12/15 03:09:11;;;;;;;29.77;7.93;;;-5.50;97.30;;;;;;4973468;28;20439;-78
2023/12/15 03:11:37;;;;;;;;;;;-5.50;97.30;;;;;;4969604;28;20082;-79
2023/12/15 03:14:03;;;;;;;20.80;7.50;;;-5.50;97.40;;;;;;4960458;28;20291;-78
2023/12/15 03:16:29;;;;;;;34.15;8.20;;;-5.50;97.40;;;;;;4954792;28;20034;-78
2023/12/15 03:18:54;;;;;;;36.00;11.73;;;-5.50;97.40;;;;;;4956085;28;20518;-77
2023/12/15 03:21:20;;;;;;;26.30;9.27;;;-5.50;97.30;;;;;;4972922;28;20062;-78
2023/12/15 03:23:46;;;;;;;27.10;7.93;;;-5.50;97.20;;;;;;4973274;28;20053;-78
2023/12/15 03:26:12;;;;;;;31.85;10.02;;;-5.50;97.20;;;;;;4955607;28;20030;-78
2023/12/15 03:28:39;;;;;;;23.95;8.23;;;-5.50;97.20;;;;;;4973031;28;20022;-79
2023/12/15 03:31:06;;;;;;;;;;;-5.50;97.00;;;;;;4950329;29;20047;-77
2023/12/15 03:33:35;;;;;;;29.42;7.65;;;-5.50;97.00;;;;;;4954513;28;19910;-78
2023/12/15 03:36:02;;;;;;;22.52;9.65;;;-5.50;97.10;;;;;;4981558;28;20038;-77
2023/12/15 03:38:28;;;;;;;24.40;8.52;;;-5.50;97.10;;;;;;4975176;28;20026;-79
2023/12/15 03:40:54;;;;;;;28.00;8.38;;;-5.50;97.10;;;;;;4973081;28;20033;-78
2023/12/15 03:43:20;;;;;;;23.05;7.28;;;-5.50;97.10;;;;;;4969518;28;20468;-77
2023/12/15 03:45:46;;;;;;;32.72;8.75;;;-5.50;97.00;;;;;;4972242;28;20166;-79
2023/12/15 03:48:12;;;;;;;30.83;8.73;;;-5.40;97.10;;;;;;4958538;28;20030;-79
2023/12/15 03:50:38;;;;;;;35.28;10.68;;;-5.40;97.10;;;;;;4967196;28;20130;-78
2023/12/15 03:53:04;;;;;;;32.03;9.10;;;-5.40;97.10;;;;;;4957364;28;20130;-79
2023/12/15 03:55:29;;;;;;;30.85;10.20;;;-5.40;97.00;;;;;;4976852;28;20436;-79
2023/12/15 03:57:55;;;;;;;31.30;7.95;;;-5.40;97.00;;;;;;4959300;28;20031;-79
2023/12/15 04:00:21;;;;;;;33.13;12.57;;;-5.40;97.00;;;;;;4967844;28;20023;-79
2023/12/15 04:02:47;;;;;;;31.05;7.95;;;-5.30;97.10;;;;;;4971917;28;20066;-78
2023/12/15 04:05:13;;;;;;;25.77;8.70;;;-5.30;97.00;;;;;;4973861;28;20447;-79
2023/12/15 04:07:39;;;;;;;36.85;9.85;;;-5.30;96.90;;;;;;4976692;28;20031;-78
2023/12/15 04:10:06;;;;;;;26.65;10.02;;;-5.30;96.70;;;;;;4976373;28;20055;-79
2023/12/15 04:12:31;;;;;;;13.07;6.38;;;-5.30;96.80;;;;;;4976648;28;20113;-76
2023/12/15 04:14:57;;;;;;;21.35;8.38;;;-5.30;96.90;;;;;;4976582;28;20428;-78
2023/12/15 04:17:23;;;;;;;28.85;9.13;;;-5.30;96.90;;;;;;4959007;28;20030;-77
2023/12/15 04:19:49;;;;;;;22.58;8.48;;;-5.30;97.00;;;;;;4973834;28;20024;-78
2023/12/15 04:22:15;;;;;;;26.90;9.65;;;-5.30;96.90;;;;;;4961909;28;20042;-78
2023/12/15 04:24:41;;;;;;;39.03;10.15;;;-5.30;96.80;;;;;;4977165;28;20021;-78
2023/12/15 04:27:06;;;;;;;25.30;9.75;;;-5.30;96.90;;;;;;4976546;28;20023;-77
2023/12/15 04:29:32;;;;;;;31.45;9.55;;;-5.30;96.90;;;;;;4976406;28;20027;-79
2023/12/15 04:31:58;;;;;;;20.50;7.60;;;-5.30;96.90;;;;;;4976077;28;20027;-77
2023/12/15 04:34:24;;;;;;;26.92;8.38;;;-5.30;96.90;;;;;;4959110;28;20113;-77
2023/12/15 04:36:50;;;;;;;27.33;7.93;;;-5.30;96.90;;;;;;4957443;28;20063;-79
2023/12/15 04:39:16;;;;;;;41.33;10.60;;;-5.30;96.70;;;;;;4976173;28;20019;-78
2023/12/15 04:41:42;;;;;;;18.42;7.72;;;-5.30;96.50;;;;;;4974859;28;20058;-79
2023/12/15 04:44:07;;;;;;;23.13;9.10;;;-5.30;96.60;;;;;;4977964;28;20085;-79
2023/12/15 04:46:33;;;;;;;21.23;8.18;;;-5.30;96.60;;;;;;4976191;28;20034;-79
2023/12/15 04:48:59;;;;;;;27.85;7.90;;;-5.30;96.60;;;;;;4941062;29;20111;-78
2023/12/15 04:51:26;;;;;;;32.33;9.75;;;-5.30;96.60;;;;;;4969765;28;20023;-79
2023/12/15 04:53:52;;;;;;;20.50;7.20;;;-5.20;96.50;;;;;;4967838;28;20035;-79
2023/12/15 04:56:17;;;;;;;23.17;7.40;;;-5.20;96.40;;;;;;4975593;28;20023;-77
2023/12/15 04:58:44;;;;;;;24.52;8.52;;;-5.20;96.50;;;;;;4975691;28;20396;-81
2023/12/15 05:01:12;;;;;;;24.30;10.70;;;-5.20;96.50;;;;;;4955732;28;20082;-78
2023/12/15 05:03:42;;;;;;;23.25;10.00;;;-5.20;96.30;;;;;;4934115;29;20500;-80
2023/12/15 05:06:27;;;;;;;27.10;7.55;;;-5.20;96.10;;;;;;4950037;28;20062;-80
2023/12/15 05:08:53;;;;;;;29.23;8.35;;;-5.20;96.10;;;;;;4935512;29;20552;-79
2023/12/15 05:11:19;;;;;;;36.38;8.43;;;-5.20;96.30;;;;;;4936570;29;20485;-81
2023/12/15 05:13:45;;;;;;;32.65;9.07;;;-5.20;96.50;;;;;;4936724;29;20027;-79
2023/12/15 05:16:11;;;;;;;31.40;8.80;;;-5.20;96.50;;;;;;4932448;29;20013;-79
2023/12/15 05:18:37;;;;;;;23.27;7.97;;;-5.20;96.50;;;;;;4936678;29;20111;-79
2023/12/15 05:21:04;;;;;;;24.00;10.85;;;-5.10;96.60;;;;;;4936949;29;20393;-78
2023/12/15 05:23:30;;;;;;;36.20;9.75;;;-5.10;96.60;;;;;;4935870;29;20071;-77
2023/12/15 05:25:56;;;;;;;24.38;8.23;;;-5.10;96.60;;;;;;4936794;29;20035;-80
2023/12/15 05:28:22;;;;;;;25.70;9.07;;;-5.10;96.50;;;;;;4936428;29;20024;-79
2023/12/15 05:30:48;;;;;;;37.47;9.60;;;-5.10;96.40;;;;;;4936408;29;20358;-77
2023/12/15 05:33:14;;;;;;;18.25;7.35;;;-5.10;96.40;;;;;;4936437;29;20046;-78
2023/12/15 05:35:40;;;;;;;30.80;10.38;;;-5.10;96.40;;;;;;4940814;29;20030;-79
2023/12/15 05:38:06;;;;;;;27.45;9.23;;;-5.10;96.50;;;;;;4944026;28;20478;-76
2023/12/15 05:40:31;;;;;;;34.13;10.93;;;-5.10;96.40;;;;;;4935800;29;20028;-79
2023/12/15 05:42:57;;;;;;;40.17;10.63;;;-5.10;96.40;;;;;;4936328;29;20028;-79
2023/12/15 05:45:23;;;;;;;30.02;9.43;;;-5.10;96.40;;;;;;4935241;29;20042;-78
2023/12/15 05:47:49;;;;;;;32.03;8.65;;;-5.10;96.40;;;;;;4936344;29;20088;-79
2023/12/15 05:50:15;;;;;;;25.10;10.27;;;-5.10;96.40;;;;;;4943187;29;20024;-79
2023/12/15 05:52:41;;;;;;;33.50;10.30;;;-5.10;96.40;;;;;;4951922;29;20516;-79
2023/12/15 05:55:07;;;;;;;28.80;11.55;;;-5.10;96.40;;;;;;4955055;29;20055;-81
2023/12/15 05:57:33;;;;;;;27.10;10.30;;;-5.10;96.40;;;;;;4955001;28;20381;-81
2023/12/15 05:59:59;;;;;;;31.88;10.10;;;-5.10;96.50;;;;;;4955576;29;20015;-78
2023/12/15 06:02:25;;;;;;;33.08;8.90;;;-5.10;96.60;;;;;;4955037;29;20046;-80
2023/12/15 06:04:51;;;;;;;35.05;9.02;;;-5.10;96.70;;;;;;4974475;28;20038;-80
2023/12/15 06:07:19;;;;;;;31.35;9.07;;;-5.10;96.80;;;;;;4956686;28;20392;-80
2023/12/15 06:09:45;;;;;;;44.60;10.38;;;-5.10;96.80;;;;;;4918905;28;20047;-80
2023/12/15 06:12:11;;;;;;;37.75;12.02;;;-5.10;96.80;;;;;;4974570;28;20030;-79
2023/12/15 06:14:40;;;;;;;38.00;10.52;;;-5.10;96.70;;;;;;4973911;28;20030;-80
2023/12/15 06:17:06;;;;;;;29.73;8.90;;;-5.10;96.80;;;;;;4974211;28;20500;-80
2023/12/15 06:19:33;;;;;;;28.60;9.15;;;-5.10;96.80;;;;;;4956642;28;20057;-79
2023/12/15 06:21:59;;;;;;;40.08;11.00;;;-5.10;96.90;;;;;;4943169;28;20050;-80
2023/12/15 06:24:26;;;;;;;32.47;8.93;;;-5.00;96.90;;;;;;4948001;29;20055;-79
2023/12/15 06:26:51;;;;;;;32.50;8.80;;;-5.00;97.00;;;;;;4954156;28;20404;-80
2023/12/15 06:29:17;;;;;;;27.13;9.57;;;-5.00;97.40;;;;;;4949468;29;20026;-80
2023/12/15 06:31:47;;;;;;;36.47;12.18;;;-5.00;97.30;;;;;;4958064;28;20035;-79
2023/12/15 06:34:13;;;;;;;30.20;11.48;;;-4.90;97.30;;;;;;4957625;28;20019;-79
2023/12/15 06:36:39;;;;;;;30.17;12.15;;;-4.90;97.10;;;;;;4964293;28;20037;-79
2023/12/15 06:39:05;;;;;;;33.42;9.43;;;-5.00;96.90;;;;;;4954104;28;20085;-79
2023/12/15 06:41:31;;;;;;;34.90;10.07;;;-4.90;96.80;;;;;;4954656;28;20027;-79
2023/12/15 06:43:58;;;;;;;21.38;8.32;;;-4.90;96.80;;;;;;4953176;29;20035;-81
2023/12/15 06:46:24;;;;;;;22.83;8.83;;;-4.90;96.90;;;;;;4955094;28;20023;-81
2023/12/15 06:48:50;;;;;;;28.33;10.30;;;-4.90;97.10;;;;;;4961489;28;20023;-80
2023/12/15 06:51:16;;;;;;;23.23;9.07;;;-4.90;97.00;;;;;;4964646;28;20030;-79
2023/12/15 06:53:42;;;;;;;26.80;8.38;;;-4.90;97.00;;;;;;4955020;28;20030;-80
2023/12/15 06:56:08;;;;;;;33.60;10.13;;;-4.90;97.00;;;;;;4954930;28;20102;-80
2023/12/15 06:58:34;;;;;;;24.40;9.55;;;-4.80;97.10;;;;;;4958900;28;20027;-81
2023/12/15 07:01:00;;;;;;;29.80;9.18;;;-4.80;97.10;;;;;;4954946;28;20029;-82
2023/12/15 07:03:26;;;;;;;41.17;8.80;;;-4.80;97.10;;;;;;4954514;28;20126;-82
2023/12/15 07:05:51;;;;;;;40.05;9.43;;;-4.80;97.10;;;;;;4935826;29;20057;-81
2023/12/15 07:08:17;;;;;;;29.70;8.25;;;-4.80;97.00;;;;;;4954940;28;20026;-81
2023/12/15 07:10:43;;;;;;;25.90;9.27;;;-4.80;96.90;;;;;;4954837;28;20129;-77
2023/12/15 07:13:09;;;;;;;31.80;8.43;;;-4.80;96.90;;;;;;4944620;28;20628;-79
2023/12/15 07:15:35;;;;;;;24.38;9.30;;;-4.70;96.90;;;;;;4953698;28;20022;-78
2023/12/15 07:18:01;;;;;;;38.03;10.13;;;-4.70;96.90;;;;;;4952330;28;20024;-79
2023/12/15 07:20:27;;;;;;;27.05;9.38;;;-4.70;97.10;;;;;;4953675;28;20089;-78
2023/12/15 07:22:53;;;;;;;33.95;11.40;;;-4.70;96.80;;;;;;4952449;28;20101;-80
2023/12/15 07:25:19;;;;;;;26.55;11.18;;;-4.70;96.70;;;;;;4966700;28;20384;-79
2023/12/15 07:27:45;;;;;;;22.20;9.45;;;-4.70;96.70;;;;;;4954225;28;20042;-79
2023/12/15 07:30:12;;;;;;;26.13;9.68;;;-4.70;96.70;;;;;;4950755;28;20612;-79
2023/12/15 07:32:38;;;;;;;22.08;8.10;;;-4.70;96.70;;;;;;4964225;28;20035;-80
2023/12/15 07:35:05;;;;;;;23.87;8.77;;;-4.70;96.70;;;;;;4936430;28;20027;-80
2023/12/15 07:37:31;;;;;;;31.15;9.02;;;-4.60;96.80;;;;;;4937143;29;20042;-80
2023/12/15 07:39:57;;;;;;;29.25;10.15;;;-4.60;97.00;;;;;;4951397;28;20477;-80
2023/12/15 07:42:23;;;;;;;29.23;10.15;;;-4.60;97.00;;;;;;4935684;29;20599;-80
2023/12/15 07:44:48;;;;;;;31.00;7.78;;;-4.60;96.90;;;;;;4953418;28;20027;-81
2023/12/15 07:47:14;;;;;;;25.58;7.57;;;-4.50;96.90;;;;;;4953313;28;20031;-82
2023/12/15 07:49:40;;;;;;;22.63;9.65;;;-4.60;96.80;;;;;;4958819;28;20027;-80
2023/12/15 07:52:06;;;;;;;29.55;10.07;;;-4.60;96.90;;;;;;4972899;28;20035;-81
2023/12/15 07:54:32;;;;;;;34.53;11.82;;;-4.50;96.90;;;;;;4955212;28;20046;-82
2023/12/15 07:56:58;;;;;;;41.42;11.40;;;-4.50;96.80;;;;;;4972541;28;20033;-80
2023/12/15 07:59:23;;;;;;;27.98;9.13;;;-4.50;96.80;;;;;;4945181;28;20103;-78
2023/12/15 08:01:55;;;;;;;25.27;7.40;;;-4.50;96.80;;;;;;4961157;28;20027;-79
2023/12/15 08:04:21;;;;;;;29.15;10.75;;;-4.50;97.10;;;;;;4954337;28;20074;-79
2023/12/15 08:06:47;;;;;;;32.25;9.32;;;-4.50;97.40;;;;;;4970632;28;20061;-79
2023/12/15 08:09:13;;;;;;;22.77;9.48;;;-4.50;97.40;;;;;;4960545;28;20119;-78
2023/12/15 08:11:39;;;;;;;20.67;7.75;;;-4.50;97.30;;;;;;4954918;28;20532;-81
2023/12/15 08:14:05;;;;;;;31.85;8.82;;;-4.50;97.20;;;;;;4956562;28;20418;-79
2023/12/15 08:16:31;;;;;;;30.27;9.18;;;-4.40;97.20;;;;;;4969685;28;20039;-79
2023/12/15 08:18:57;;;;;;;33.17;9.00;;;-4.40;97.10;;;;;;4954073;28;20034;-80
2023/12/15 08:21:28;;;;;;;21.15;7.97;;;-4.40;97.20;;;;;;4953425;28;20131;-81
2023/12/15 08:23:54;;;;;;;33.00;10.68;;;-4.40;97.40;;;;;;4945758;28;20405;-79
2023/12/15 08:26:23;;;;;;;31.02;9.57;;;-4.40;97.20;;;;;;4953090;28;20031;-80
2023/12/15 08:28:49;;;;;;;32.67;10.18;;;-4.40;97.20;;;;;;4953088;28;20023;-80
2023/12/15 08:31:15;;;;;;;35.28;8.70;;;-4.40;97.20;;;;;;4949076;28;20023;-78
2023/12/15 08:33:42;;;;;;;29.55;10.30;;;-4.40;97.30;;;;;;4953147;28;20392;-81
2023/12/15 08:36:09;;;;;;;20.67;9.02;;;-4.30;97.40;;;;;;4952942;29;20023;-80
2023/12/15 08:38:36;;;;;;;25.30;7.72;;;-4.30;97.30;;;;;;4956254;28;20031;-81
2023/12/15 08:41:02;;;;;;;13.27;6.07;;;-4.30;97.20;;;;;;4957154;28;20023;-83
2023/12/15 08:43:28;;;;;;;33.97;7.95;;;-4.30;97.30;;;;;;4962676;28;20439;-81
2023/12/15 08:45:54;;;;;;;25.02;8.93;;;-4.30;97.50;;;;;;4955222;28;20043;-79
2023/12/15 08:48:20;;;;;;;22.75;8.52;;;-4.30;97.60;;;;;;4956300;28;20066;-81
2023/12/15 08:50:46;;;;;;;25.75;12.35;;;-4.30;97.40;;;;;;4952850;28;20106;-80
2023/12/15 08:53:12;;;;;;;29.75;9.50;;;-4.30;97.20;;;;;;4976769;28;20037;-79
2023/12/15 08:55:38;;;;;;;28.77;9.38;;;-4.30;97.10;;;;;;4947360;29;20503;-79
2023/12/15 08:58:04;;;;;;;20.00;7.88;;;-4.20;97.10;;;;;;4948533;28;20027;-79
2023/12/15 09:00:30;;;;;;;26.00;7.80;;;-4.30;97.10;;;;;;4957873;28;20086;-78
2023/12/15 09:02:57;;;;;;;24.60;8.68;;;-4.30;97.20;;;;;;4955314;28;20047;-80
2023/12/15 09:05:23;;;;;;;35.25;9.45;;;-4.20;97.20;;;;;;4945919;28;20027;-80
2023/12/15 09:07:51;;;;;;;26.85;9.00;;;-4.20;97.20;;;;;;4960893;28;20027;-79
2023/12/15 09:10:18;;;;;;;31.52;10.10;;;-4.20;97.50;;;;;;4955206;28;20027;-80
2023/12/15 09:12:44;;;;;;;32.33;8.23;;;-4.20;97.50;;;;;;4956400;28;20031;-79
2023/12/15 09:15:12;;;;;;;33.33;10.13;;;-4.20;97.50;;;;;;4956312;28;20093;-82
2023/12/15 09:17:38;;;;;;;22.90;8.65;;;-4.20;97.60;;;;;;4956851;28;20030;-82
2023/12/15 09:20:05;;;;;;;32.67;12.65;;;-4.20;97.40;;;;;;4955786;28;20613;-79
2023/12/15 09:22:31;;;;;;;23.38;7.60;;;-4.20;97.30;;;;;;4944062;28;20133;-81
2023/12/15 09:24:57;;;;;;;38.10;9.80;;;-4.20;97.10;;;;;;4942888;29;20068;-82
2023/12/15 09:27:23;;;;;;;38.03;13.07;;;-4.20;97.20;;;;;;4938637;29;20507;-82
2023/12/15 09:29:48;;;;;;;33.15;12.15;;;-4.20;97.30;;;;;;4953549;29;20030;-85
2023/12/15 09:32:14;;;;;;;22.25;9.05;;;-4.20;97.30;;;;;;4955143;28;20404;-80
2023/12/15 09:34:40;;;;;;;24.40;10.27;;;-4.20;97.30;;;;;;4957815;28;20500;-81
2023/12/15 09:37:07;;;;;;;30.63;9.35;;;-4.20;97.30;;;;;;4964634;28;20110;-82
2023/12/15 09:39:33;;;;;;;32.35;9.13;;;-4.10;97.50;;;;;;4962826;28;20049;-84
2023/12/15 09:41:59;;;;;;;27.48;10.63;;;-4.10;97.60;;;;;;4958991;28;20032;-83
2023/12/15 09:44:25;;;;;;;27.50;9.18;;;-4.10;97.40;;;;;;4960132;28;20019;-84
2023/12/15 09:46:51;;;;;;;33.72;11.80;;;-4.10;97.40;;;;;;4962325;28;20081;-81
2023/12/15 09:49:18;;;;;;;32.78;10.23;;;-4.10;97.40;;;;;;4957233;28;20088;-81
2023/12/15 09:51:52;;;;;;;28.08;11.18;;;-4.10;97.40;;;;;;4953221;28;20036;-80
2023/12/15 09:54:19;;;;;;;32.92;11.27;;;-4.00;97.40;;;;;;4941251;28;20722;-80
2023/12/15 09:56:48;;;;;;;;;;;-4.10;97.40;;;;;;4955653;28;20442;-82
2023/12/15 09:59:14;;;;;;;41.92;11.32;;;-4.00;97.40;;;;;;4955968;28;19941;-79
2023/12/15 10:01:40;;;;;;;38.85;10.77;;;-4.10;97.60;;;;;;4955884;29;20039;-81
2023/12/15 10:04:06;;;;;;;33.30;11.45;;;-4.00;97.60;;;;;;4955440;28;20536;-80
2023/12/15 10:06:36;;;;;;;53.05;10.57;;;-4.00;97.60;;;;;;4956638;28;20097;-80
2023/12/15 10:09:09;;;;;;;30.00;11.75;;;-4.00;97.50;;;;;;4940054;29;20117;-81
2023/12/15 10:11:36;;;;;;;34.33;11.13;;;-4.00;97.50;;;;;;4954832;28;20114;-80
2023/12/15 10:14:04;;;;;;;40.70;12.77;;;-4.00;97.50;;;;;;4955046;28;20024;-80
2023/12/15 10:16:31;;;;;;;41.40;11.02;;;-4.00;97.50;;;;;;4957040;28;20023;-78
2023/12/15 10:18:57;;;;;;;32.78;11.57;;;-3.90;97.50;;;;;;4956220;28;20020;-80
2023/12/15 10:21:23;;;;;;;36.95;11.80;;;-3.90;97.60;;;;;;4954478;28;20055;-80
2023/12/15 10:23:49;;;;;;;32.85;11.13;;;-3.90;97.60;;;;;;4957632;29;20027;-81
2023/12/15 10:26:15;;;;;;;39.15;10.18;;;-3.90;97.60;;;;;;4959814;28;20480;-80
2023/12/15 10:28:42;;;;;;;21.13;9.00;;;-3.90;97.50;;;;;;4958386;28;20023;-82
2023/12/15 10:31:08;;;;;;;30.67;10.38;;;-3.90;97.30;;;;;;4956397;28;20417;-82
2023/12/15 10:33:35;;;;;;;31.10;11.10;;;-3.80;97.30;;;;;;4956204;28;20047;-80
2023/12/15 10:36:02;;;;;;;34.03;10.40;;;-3.90;97.30;;;;;;4935557;28;20027;-81
2023/12/15 10:38:30;;;;;;;26.45;10.10;;;-3.90;97.20;;;;;;4942331;28;20051;-80
2023/12/15 10:40:56;;;;;;;;;;;-3.80;97.60;;;;;;4967731;28;20127;-81
2023/12/15 10:43:22;;;;;;;54.17;13.65;;;-3.80;97.40;;;;;;4937420;29;19910;-80
2023/12/15 10:45:51;;;;;;;36.70;11.50;;;-3.80;97.60;;;;;;4954769;28;20059;-81
2023/12/15 10:48:18;;;;;;;32.80;10.52;;;-3.80;97.50;;;;;;4958024;28;20027;-79
2023/12/15 10:50:48;;;;;;;31.77;12.05;;;-3.80;97.60;;;;;;4961252;28;20167;-80
2023/12/15 10:53:15;;;;;;;39.92;10.65;;;-3.80;97.50;;;;;;4953653;28;20080;-81
2023/12/15 10:55:45;;;;;;;26.67;10.23;;;-3.70;97.40;;;;;;4953374;29;20428;-81
2023/12/15 10:58:14;;;;;;;28.23;10.00;;;-3.70;97.40;;;;;;4973248;28;20388;-80
2023/12/15 11:00:40;;;;;;;31.02;12.88;;;-3.70;97.30;;;;;;4962285;28;20401;-81
2023/12/15 11:03:10;;;;;;;34.30;14.10;;;-3.70;97.40;;;;;;4953761;28;20043;-80
2023/12/15 11:05:37;;;;;;;36.67;14.80;;;-3.70;97.40;;;;;;4943722;29;20382;-81
2023/12/15 11:08:03;;;;;;;37.53;10.55;;;-3.70;97.30;;;;;;4954135;28;20357;-79
2023/12/15 11:10:29;;;;;;;36.83;9.98;;;-3.70;97.50;;;;;;4954129;28;20039;-79
2023/12/15 11:12:55;;;;;;;36.70;13.13;;;-3.70;97.60;;;;;;4951245;28;20046;-82
2023/12/15 11:15:22;;;;;;;34.45;13.98;;;-3.60;97.60;;;;;;4952070;28;20032;-82
2023/12/15 11:17:58;;;;;;;;;;;-3.60;97.50;;;;;;4954445;28;20023;-79
2023/12/15 11:20:25;;;;;;;24.40;10.43;;;-3.60;97.60;;;;;;4954271;28;19918;-82
2023/12/15 11:22:52;;;;;;;;;;;-3.60;97.80;;;;;;4936772;29;20034;-81
2023/12/15 11:25:20;;;;;;;35.45;10.55;;;-3.60;97.80;;;;;;4936336;29;19981;-80
2023/12/15 11:28:07;;;;;;;34.55;11.63;;;-3.60;97.90;;;;;;4953835;28;20058;-81
2023/12/15 11:30:41;;;;;;;36.72;11.20;;;-3.60;97.80;;;;;;4954466;28;20110;-81
2023/12/15 11:33:26;;;;;;;37.08;11.35;;;-3.60;97.80;;;;;;4952774;28;20086;-79
2023/12/15 11:36:03;;;;;;;28.23;10.13;;;-3.50;97.70;;;;;;4948845;28;20499;-80
2023/12/15 11:38:30;;;;;;;25.52;9.00;;;-3.50;97.70;;;;;;4949074;28;20506;-81
2023/12/15 11:40:57;;;;;;;32.05;11.55;;;-3.50;97.90;;;;;;4936538;29;20166;-81
2023/12/15 11:43:26;;;;;;;;;;;-3.50;97.90;;;;;;4954537;28;20033;-82
2023/12/15 11:45:54;;;;;;;22.88;9.40;;;-3.50;97.90;;;;;;4964952;28;19906;-82
2023/12/15 11:48:24;;;;;;;29.58;12.02;;;-3.50;97.70;;;;;;4947975;28;20026;-85
2023/12/15 11:50:51;;;;;;;39.47;14.77;;;-3.50;97.70;;;;;;4952858;29;20091;-86
2023/12/15 11:53:18;;;;;;;26.02;10.43;;;-3.50;97.60;;;;;;4946008;28;20030;-87
2023/12/15 11:55:46;;;;;;;30.15;10.80;;;-3.40;97.90;;;;;;4973656;28;20062;-86
2023/12/15 11:58:15;;;;;;;24.20;10.35;;;-3.40;98.30;;;;;;4968065;28;20106;-85
2023/12/15 12:00:50;;;;;;;29.73;12.23;;;-3.40;98.20;;;;;;4980773;28;20086;-89
2023/12/15 12:03:16;;;;;;;28.15;12.50;;;-3.30;98.20;;;;;;4969169;28;20122;-93
2023/12/15 12:05:45;;;;;;;46.10;17.48;;;-3.40;98.20;;;;;;4945368;29;20366;-94
2023/12/15 12:08:12;;;;;;;35.72;12.32;;;-3.30;98.00;;;;;;4943218;29;20024;-95
2023/12/15 12:10:41;;;;;;;34.90;11.35;;;-3.30;98.00;;;;;;4945577;29;20091;-93
2023/12/15 12:13:11;;;;;;;26.98;13.75;;;-3.30;97.70;;;;;;4928218;29;20054;-81
2023/12/15 12:15:53;;;;;;;26.52;10.88;;;-3.30;97.50;;;;;;4937939;29;20058;-83
2023/12/15 12:18:24;;;;;;;29.77;12.00;;;-3.30;97.50;;;;;;4928097;29;20357;-81
2023/12/15 12:21:06;;;;;;;36.63;12.18;;;-3.30;97.40;;;;;;4957083;28;20031;-80
2023/12/15 12:23:33;;;;;;;25.67;10.48;;;-3.30;97.30;;;;;;4955065;28;20469;-81
2023/12/15 12:26:00;;;;;;;27.70;9.87;;;-3.30;97.40;;;;;;4956717;28;20031;-80
2023/12/15 12:28:37;;;;;;;31.65;13.18;;;-3.30;97.20;;;;;;4951889;28;20034;-81
2023/12/15 12:31:03;;;;;;;26.00;10.15;;;-3.30;97.10;;;;;;4962896;28;20027;-83
2023/12/15 12:33:30;;;;;;;27.83;9.13;;;-3.30;97.00;;;;;;4954528;28;20148;-81